sensor_id;sensor_type;location;lat;lon;timestamp;pressure;altitude;pressure_sealevel;temperature;humidity
64460;BME280;50828;53.756;21.140;2023-02-23T00:01:38;100429.13;;;-1.62;64.62
64460;BME280;50828;53.756;21.140;2023-02-23T00:06:46;100430.92;;;-1.68;64.60
64460;BME280;50828;53.756;21.140;2023-02-23T00:11:55;100432.59;;;-1.71;64.51
64460;BME280;50828;53.756;21.140;2023-02-23T00:17:03;100426.46;;;-1.77;64.65
64460;BME280;50828;53.756;21.140;2023-02-23T00:22:15;100428.83;;;-1.81;64.74
64460;BME280;50828;53.756;21.140;2023-02-23T00:27:23;100429.30;;;-1.85;64.85
64460;BME280;50828;53.756;21.140;2023-02-23T00:32:30;100425.73;;;-1.91;64.92
64460;BME280;50828;53.756;21.140;2023-02-23T00:37:38;100420.31;;;-1.96;64.83
64460;BME280;50828;53.756;21.140;2023-02-23T00:42:46;100419.55;;;-2.01;64.98
64460;BME280;50828;53.756;21.140;2023-02-23T00:47:55;100416.19;;;-2.06;64.97
64460;BME280;50828;53.756;21.140;2023-02-23T00:53:03;100410.25;;;-2.11;65.02
64460;BME280;50828;53.756;21.140;2023-02-23T00:58:10;100404.79;;;-2.18;65.07
64460;BME280;50828;53.756;21.140;2023-02-23T01:03:19;100403.50;;;-2.22;65.04
64460;BME280;50828;53.756;21.140;2023-02-23T01:08:27;100402.38;;;-2.27;64.96
64460;BME280;50828;53.756;21.140;2023-02-23T01:13:37;100397.95;;;-2.34;65.10
64460;BME280;50828;53.756;21.140;2023-02-23T01:18:45;100398.23;;;-2.39;65.14
64460;BME280;50828;53.756;21.140;2023-02-23T01:23:54;100398.64;;;-2.45;65.21
64460;BME280;50828;53.756;21.140;2023-02-23T01:29:03;100397.52;;;-2.49;65.28
64460;BME280;50828;53.756;21.140;2023-02-23T01:34:13;100398.30;;;-2.54;65.36
64460;BME280;50828;53.756;21.140;2023-02-23T01:39:22;100388.92;;;-2.59;65.40
64460;BME280;50828;53.756;21.140;2023-02-23T01:50:12;100381.88;;;-2.66;65.48
64460;BME280;50828;53.756;21.140;2023-02-23T01:55:22;100375.38;;;-2.73;65.49
64460;BME280;50828;53.756;21.140;2023-02-23T02:00:36;100371.19;;;-2.76;65.58
64460;BME280;50828;53.756;21.140;2023-02-23T02:05:44;100359.70;;;-2.83;65.65
64460;BME280;50828;53.756;21.140;2023-02-23T02:10:53;100357.20;;;-2.87;65.56
64460;BME280;50828;53.756;21.140;2023-02-23T02:16:25;100356.96;;;-2.91;65.84
64460;BME280;50828;53.756;21.140;2023-02-23T02:21:58;100354.98;;;-2.96;65.69
64460;BME280;50828;53.756;21.140;2023-02-23T02:27:26;100354.89;;;-3.00;65.76
64460;BME280;50828;53.756;21.140;2023-02-23T02:33:13;100358.30;;;-3.03;65.79
64460;BME280;50828;53.756;21.140;2023-02-23T02:38:32;100362.21;;;-3.05;65.91
64460;BME280;50828;53.756;21.140;2023-02-23T02:43:47;100358.55;;;-3.07;65.97
64460;BME280;50828;53.756;21.140;2023-02-23T02:49:03;100356.80;;;-3.09;66.11
64460;BME280;50828;53.756;21.140;2023-02-23T02:54:20;100354.48;;;-3.13;65.98
64460;BME280;50828;53.756;21.140;2023-02-23T02:59:30;100356.36;;;-3.14;65.96
64460;BME280;50828;53.756;21.140;2023-02-23T03:04:55;100352.17;;;-3.16;66.08
64460;BME280;50828;53.756;21.140;2023-02-23T03:10:27;100349.89;;;-3.19;66.21
64460;BME280;50828;53.756;21.140;2023-02-23T03:16:02;100347.44;;;-3.21;66.21
64460;BME280;50828;53.756;21.140;2023-02-23T03:21:39;100344.27;;;-3.24;66.16
64460;BME280;50828;53.756;21.140;2023-02-23T03:27:13;100341.65;;;-3.26;66.20
64460;BME280;50828;53.756;21.140;2023-02-23T03:32:48;100347.30;;;-3.28;66.38
64460;BME280;50828;53.756;21.140;2023-02-23T03:38:18;100346.21;;;-3.30;66.31
64460;BME280;50828;53.756;21.140;2023-02-23T03:43:50;100349.80;;;-3.32;66.31
64460;BME280;50828;53.756;21.140;2023-02-23T03:49:19;100351.99;;;-3.35;66.52
64460;BME280;50828;53.756;21.140;2023-02-23T03:54:48;100358.85;;;-3.36;66.43
64460;BME280;50828;53.756;21.140;2023-02-23T04:00:18;100353.16;;;-3.37;66.64
64460;BME280;50828;53.756;21.140;2023-02-23T04:05:45;100354.03;;;-3.36;66.77
64460;BME280;50828;53.756;21.140;2023-02-23T04:11:16;100348.35;;;-3.36;67.06
64460;BME280;50828;53.756;21.140;2023-02-23T04:16:43;100350.30;;;-3.33;67.14
64460;BME280;50828;53.756;21.140;2023-02-23T04:21:50;100341.58;;;-3.31;67.32
64460;BME280;50828;53.756;21.140;2023-02-23T04:26:58;100347.17;;;-3.25;67.25
64460;BME280;50828;53.756;21.140;2023-02-23T04:32:08;100351.42;;;-3.20;67.27
64460;BME280;50828;53.756;21.140;2023-02-23T04:37:29;100351.55;;;-3.13;67.43
64460;BME280;50828;53.756;21.140;2023-02-23T04:42:36;100345.09;;;-3.07;67.38
64460;BME280;50828;53.756;21.140;2023-02-23T04:47:44;100346.27;;;-3.01;67.58
64460;BME280;50828;53.756;21.140;2023-02-23T04:52:51;100339.50;;;-2.94;67.49
64460;BME280;50828;53.756;21.140;2023-02-23T04:58:00;100332.52;;;-2.89;67.41
64460;BME280;50828;53.756;21.140;2023-02-23T05:03:08;100335.71;;;-2.84;67.53
64460;BME280;50828;53.756;21.140;2023-02-23T05:08:15;100329.75;;;-2.79;67.59
64460;BME280;50828;53.756;21.140;2023-02-23T05:13:22;100328.48;;;-2.73;67.48
64460;BME280;50828;53.756;21.140;2023-02-23T05:18:30;100325.83;;;-2.68;67.52
64460;BME280;50828;53.756;21.140;2023-02-23T05:23:38;100322.79;;;-2.63;67.39
64460;BME280;50828;53.756;21.140;2023-02-23T05:28:45;100320.80;;;-2.59;67.54
64460;BME280;50828;53.756;21.140;2023-02-23T05:33:54;100315.36;;;-2.53;67.44
64460;BME280;50828;53.756;21.140;2023-02-23T05:39:01;100305.77;;;-2.49;67.38
64460;BME280;50828;53.756;21.140;2023-02-23T05:44:08;100299.75;;;-2.49;67.31
64460;BME280;50828;53.756;21.140;2023-02-23T05:49:16;100298.91;;;-2.47;67.14
64460;BME280;50828;53.756;21.140;2023-02-23T05:54:23;100300.66;;;-2.45;67.21
64460;BME280;50828;53.756;21.140;2023-02-23T05:59:31;100293.43;;;-2.44;67.23
64460;BME280;50828;53.756;21.140;2023-02-23T06:04:39;100287.22;;;-2.44;67.15
64460;BME280;50828;53.756;21.140;2023-02-23T06:09:46;100286.89;;;-2.43;67.10
64460;BME280;50828;53.756;21.140;2023-02-23T06:14:53;100288.14;;;-2.42;67.21
64460;BME280;50828;53.756;21.140;2023-02-23T06:20:01;100287.10;;;-2.40;67.16
64460;BME280;50828;53.756;21.140;2023-02-23T06:25:10;100284.02;;;-2.38;67.27
64460;BME280;50828;53.756;21.140;2023-02-23T06:30:19;100282.35;;;-2.36;67.28
64460;BME280;50828;53.756;21.140;2023-02-23T06:35:26;100280.65;;;-2.34;67.21
64460;BME280;50828;53.756;21.140;2023-02-23T06:40:34;100286.24;;;-2.29;67.15
64460;BME280;50828;53.756;21.140;2023-02-23T06:45:41;100284.91;;;-2.25;67.12
64460;BME280;50828;53.756;21.140;2023-02-23T06:50:49;100280.52;;;-2.19;67.31
64460;BME280;50828;53.756;21.140;2023-02-23T06:55:57;100275.42;;;-2.14;67.15
64460;BME280;50828;53.756;21.140;2023-02-23T07:01:05;100276.36;;;-2.08;67.17
64460;BME280;50828;53.756;21.140;2023-02-23T07:06:12;100275.06;;;-2.00;67.00
64460;BME280;50828;53.756;21.140;2023-02-23T07:11:20;100271.36;;;-1.94;67.06
64460;BME280;50828;53.756;21.140;2023-02-23T07:16:28;100265.92;;;-1.87;66.85
64460;BME280;50828;53.756;21.140;2023-02-23T07:21:35;100255.98;;;-1.81;66.86
64460;BME280;50828;53.756;21.140;2023-02-23T07:26:43;100255.05;;;-1.73;66.76
64460;BME280;50828;53.756;21.140;2023-02-23T07:31:52;100245.64;;;-1.66;66.83
64460;BME280;50828;53.756;21.140;2023-02-23T07:37:00;100232.23;;;-1.59;66.78
64460;BME280;50828;53.756;21.140;2023-02-23T07:42:08;100224.57;;;-1.50;66.65
64460;BME280;50828;53.756;21.140;2023-02-23T07:47:15;100223.10;;;-1.41;66.82
64460;BME280;50828;53.756;21.140;2023-02-23T07:52:23;100221.11;;;-1.32;66.71
64460;BME280;50828;53.756;21.140;2023-02-23T07:57:30;100216.38;;;-1.22;66.70
64460;BME280;50828;53.756;21.140;2023-02-23T08:02:38;100212.66;;;-1.13;66.72
64460;BME280;50828;53.756;21.140;2023-02-23T08:07:45;100212.58;;;-1.02;66.71
64460;BME280;50828;53.756;21.140;2023-02-23T08:12:53;100212.67;;;-0.91;66.73
64460;BME280;50828;53.756;21.140;2023-02-23T08:18:00;100210.84;;;-0.82;66.67
64460;BME280;50828;53.756;21.140;2023-02-23T08:23:08;100200.73;;;-0.70;66.58
64460;BME280;50828;53.756;21.140;2023-02-23T08:28:16;100195.95;;;-0.60;66.42
64460;BME280;50828;53.756;21.140;2023-02-23T08:33:24;100183.55;;;-0.53;66.28
64460;BME280;50828;53.756;21.140;2023-02-23T08:38:32;100192.25;;;-0.43;66.24
64460;BME280;50828;53.756;21.140;2023-02-23T08:43:41;100190.23;;;-0.33;65.95
64460;BME280;50828;53.756;21.140;2023-02-23T08:48:49;100189.06;;;-0.23;65.87
64460;BME280;50828;53.756;21.140;2023-02-23T08:53:57;100182.52;;;-0.14;65.66
64460;BME280;50828;53.756;21.140;2023-02-23T08:59:04;100177.02;;;-0.06;65.65
64460;BME280;50828;53.756;21.140;2023-02-23T09:04:12;100169.80;;;0.03;65.48
64460;BME280;50828;53.756;21.140;2023-02-23T09:09:20;100161.34;;;0.12;65.28
64460;BME280;50828;53.756;21.140;2023-02-23T09:14:28;100154.26;;;0.23;65.13
64460;BME280;50828;53.756;21.140;2023-02-23T09:19:37;100152.72;;;0.32;65.06
64460;BME280;50828;53.756;21.140;2023-02-23T09:24:46;100138.54;;;0.42;64.89
64460;BME280;50828;53.756;21.140;2023-02-23T09:29:54;100130.05;;;0.50;64.73
64460;BME280;50828;53.756;21.140;2023-02-23T09:35:03;100124.34;;;0.59;64.57
64460;BME280;50828;53.756;21.140;2023-02-23T09:40:15;100125.39;;;0.66;64.32
64460;BME280;50828;53.756;21.140;2023-02-23T09:45:25;100123.13;;;0.71;64.09
64460;BME280;50828;53.756;21.140;2023-02-23T09:50:39;100118.45;;;0.78;63.70
64460;BME280;50828;53.756;21.140;2023-02-23T09:55:50;100118.79;;;0.82;63.86
64460;BME280;50828;53.756;21.140;2023-02-23T10:01:15;100113.59;;;0.86;63.94
64460;BME280;50828;53.756;21.140;2023-02-23T10:06:27;100103.72;;;0.90;63.75
64460;BME280;50828;53.756;21.140;2023-02-23T10:11:41;100105.44;;;0.96;63.88
64460;BME280;50828;53.756;21.140;2023-02-23T10:17:05;100099.54;;;1.01;63.78
64460;BME280;50828;53.756;21.140;2023-02-23T10:22:13;100101.79;;;1.08;63.84
64460;BME280;50828;53.756;21.140;2023-02-23T10:27:24;100098.48;;;1.15;63.47
64460;BME280;50828;53.756;21.140;2023-02-23T10:32:39;100094.98;;;1.23;63.56
64460;BME280;50828;53.756;21.140;2023-02-23T10:37:46;100083.69;;;1.28;63.41
64460;BME280;50828;53.756;21.140;2023-02-23T10:42:56;100073.96;;;1.33;63.04
64460;BME280;50828;53.756;21.140;2023-02-23T10:48:08;100070.47;;;1.37;63.04
64460;BME280;50828;53.756;21.140;2023-02-23T10:53:24;100058.30;;;1.43;63.01
64460;BME280;50828;53.756;21.140;2023-02-23T10:58:41;100051.88;;;1.48;62.88
64460;BME280;50828;53.756;21.140;2023-02-23T11:03:51;100042.13;;;1.53;62.77
64460;BME280;50828;53.756;21.140;2023-02-23T11:09:24;100030.13;;;1.58;62.80
64460;BME280;50828;53.756;21.140;2023-02-23T11:14:52;100017.27;;;1.63;62.67
64460;BME280;50828;53.756;21.140;2023-02-23T11:20:04;100006.45;;;1.67;62.73
64460;BME280;50828;53.756;21.140;2023-02-23T11:25:23;100005.06;;;1.71;62.00
64460;BME280;50828;53.756;21.140;2023-02-23T11:30:36;99995.30;;;1.75;61.95
64460;BME280;50828;53.756;21.140;2023-02-23T11:35:48;99981.20;;;1.81;61.54
64460;BME280;50828;53.756;21.140;2023-02-23T11:41:05;99970.22;;;1.88;61.57
64460;BME280;50828;53.756;21.140;2023-02-23T11:46:25;99958.55;;;1.91;61.63
64460;BME280;50828;53.756;21.140;2023-02-23T11:51:37;99954.02;;;1.95;61.38
64460;BME280;50828;53.756;21.140;2023-02-23T11:56:48;99954.69;;;1.99;61.76
64460;BME280;50828;53.756;21.140;2023-02-23T12:02:15;99951.17;;;2.04;61.68
64460;BME280;50828;53.756;21.140;2023-02-23T12:07:32;99931.04;;;2.00;61.70
64460;BME280;50828;53.756;21.140;2023-02-23T12:12:53;99938.70;;;2.19;61.31
64460;BME280;50828;53.756;21.140;2023-02-23T12:18:10;99935.48;;;2.27;61.27
64460;BME280;50828;53.756;21.140;2023-02-23T12:23:25;99937.14;;;2.39;60.90
64460;BME280;50828;53.756;21.140;2023-02-23T12:28:35;99931.15;;;2.47;61.29
64460;BME280;50828;53.756;21.140;2023-02-23T12:33:46;99927.97;;;2.52;61.29
64460;BME280;50828;53.756;21.140;2023-02-23T12:38:57;99918.89;;;2.55;61.19
64460;BME280;50828;53.756;21.140;2023-02-23T12:44:07;99913.63;;;2.61;60.89
64460;BME280;50828;53.756;21.140;2023-02-23T12:49:24;99906.80;;;2.65;60.34
64460;BME280;50828;53.756;21.140;2023-02-23T12:54:38;99900.50;;;2.67;60.81
64460;BME280;50828;53.756;21.140;2023-02-23T13:00:15;99895.21;;;2.73;60.92
64460;BME280;50828;53.756;21.140;2023-02-23T13:05:38;99888.55;;;2.79;60.77
64460;BME280;50828;53.756;21.140;2023-02-23T13:10:53;99882.56;;;2.85;60.84
64460;BME280;50828;53.756;21.140;2023-02-23T13:16:16;99869.11;;;2.89;60.70
64460;BME280;50828;53.756;21.140;2023-02-23T13:21:28;99854.62;;;2.93;60.69
64460;BME280;50828;53.756;21.140;2023-02-23T13:26:48;99850.05;;;2.97;60.39
64460;BME280;50828;53.756;21.140;2023-02-23T13:31:57;99850.16;;;3.01;60.32
64460;BME280;50828;53.756;21.140;2023-02-23T13:37:08;99841.27;;;3.03;60.47
64460;BME280;50828;53.756;21.140;2023-02-23T13:42:38;99845.92;;;3.06;60.48
64460;BME280;50828;53.756;21.140;2023-02-23T13:47:56;99838.40;;;3.08;60.21
64460;BME280;50828;53.756;21.140;2023-02-23T13:53:31;99832.14;;;3.09;60.47
64460;BME280;50828;53.756;21.140;2023-02-23T13:58:46;99820.15;;;3.08;60.13
64460;BME280;50828;53.756;21.140;2023-02-23T14:03:57;99804.35;;;3.06;60.12
64460;BME280;50828;53.756;21.140;2023-02-23T14:09:16;99800.18;;;3.04;60.12
64460;BME280;50828;53.756;21.140;2023-02-23T14:14:43;99793.77;;;3.04;60.11
64460;BME280;50828;53.756;21.140;2023-02-23T14:25:51;99780.22;;;3.02;60.14
64460;BME280;50828;53.756;21.140;2023-02-23T14:31:05;99769.98;;;3.01;60.31
64460;BME280;50828;53.756;21.140;2023-02-23T14:36:40;99756.61;;;2.99;60.34
64460;BME280;50828;53.756;21.140;2023-02-23T14:41:51;99743.41;;;2.97;60.40
64460;BME280;50828;53.756;21.140;2023-02-23T14:47:03;99731.95;;;2.96;60.39
64460;BME280;50828;53.756;21.140;2023-02-23T14:52:18;99729.34;;;2.96;60.47
64460;BME280;50828;53.756;21.140;2023-02-23T14:57:27;99721.19;;;2.94;60.71
64460;BME280;50828;53.756;21.140;2023-02-23T15:02:36;99718.23;;;2.94;60.74
64460;BME280;50828;53.756;21.140;2023-02-23T15:08:02;99706.42;;;2.93;60.63
64460;BME280;50828;53.756;21.140;2023-02-23T15:13:13;99697.74;;;2.91;60.69
64460;BME280;50828;53.756;21.140;2023-02-23T15:18:32;99694.33;;;2.88;60.65
64460;BME280;50828;53.756;21.140;2023-02-23T15:23:41;99682.88;;;2.86;60.83
64460;BME280;50828;53.756;21.140;2023-02-23T15:28:50;99666.73;;;2.83;60.91
64460;BME280;50828;53.756;21.140;2023-02-23T15:33:59;99653.75;;;2.80;61.02
64460;BME280;50828;53.756;21.140;2023-02-23T15:39:10;99648.06;;;2.76;61.03
64460;BME280;50828;53.756;21.140;2023-02-23T15:44:23;99642.39;;;2.72;61.02
64460;BME280;50828;53.756;21.140;2023-02-23T15:49:43;99635.67;;;2.68;61.03
64460;BME280;50828;53.756;21.140;2023-02-23T15:54:53;99631.19;;;2.65;61.08
64460;BME280;50828;53.756;21.140;2023-02-23T16:00:18;99622.58;;;2.61;61.03
64460;BME280;50828;53.756;21.140;2023-02-23T16:05:39;99621.41;;;2.57;61.11
64460;BME280;50828;53.756;21.140;2023-02-23T16:11:11;99612.10;;;2.52;61.13
64460;BME280;50828;53.756;21.140;2023-02-23T16:16:21;99601.89;;;2.48;61.16
64460;BME280;50828;53.756;21.140;2023-02-23T16:21:31;99599.20;;;2.43;61.37
64460;BME280;50828;53.756;21.140;2023-02-23T16:26:43;99589.36;;;2.38;61.36
64460;BME280;50828;53.756;21.140;2023-02-23T16:31:58;99580.93;;;2.33;61.47
64460;BME280;50828;53.756;21.140;2023-02-23T16:37:16;99573.37;;;2.27;61.49
64460;BME280;50828;53.756;21.140;2023-02-23T16:42:27;99564.75;;;2.22;61.64
64460;BME280;50828;53.756;21.140;2023-02-23T16:47:42;99549.89;;;2.17;61.78
64460;BME280;50828;53.756;21.140;2023-02-23T16:52:54;99545.25;;;2.14;61.83
64460;BME280;50828;53.756;21.140;2023-02-23T16:58:03;99537.20;;;2.06;62.00
64460;BME280;50828;53.756;21.140;2023-02-23T17:03:17;99533.09;;;2.01;62.27
64460;BME280;50828;53.756;21.140;2023-02-23T17:08:26;99533.16;;;1.98;62.12
64460;BME280;50828;53.756;21.140;2023-02-23T17:13:35;99527.69;;;1.91;62.39
64460;BME280;50828;53.756;21.140;2023-02-23T17:18:43;99520.61;;;1.88;62.33
64460;BME280;50828;53.756;21.140;2023-02-23T17:23:51;99515.64;;;1.83;62.55
64460;BME280;50828;53.756;21.140;2023-02-23T17:29:02;99509.30;;;1.78;62.64
64460;BME280;50828;53.756;21.140;2023-02-23T17:34:10;99500.67;;;1.73;62.81
64460;BME280;50828;53.756;21.140;2023-02-23T17:39:20;99497.61;;;1.69;62.83
64460;BME280;50828;53.756;21.140;2023-02-23T17:44:28;99494.70;;;1.65;63.01
64460;BME280;50828;53.756;21.140;2023-02-23T17:49:37;99484.34;;;1.62;63.10
64460;BME280;50828;53.756;21.140;2023-02-23T17:54:45;99481.78;;;1.58;63.10
64460;BME280;50828;53.756;21.140;2023-02-23T17:59:53;99469.85;;;1.55;63.34
64460;BME280;50828;53.756;21.140;2023-02-23T18:05:01;99469.90;;;1.53;63.31
64460;BME280;50828;53.756;21.140;2023-02-23T18:10:11;99463.85;;;1.50;63.44
64460;BME280;50828;53.756;21.140;2023-02-23T18:15:22;99458.67;;;1.48;63.59
64460;BME280;50828;53.756;21.140;2023-02-23T18:20:31;99451.05;;;1.47;63.67
64460;BME280;50828;53.756;21.140;2023-02-23T18:25:39;99439.45;;;1.44;63.76
64460;BME280;50828;53.756;21.140;2023-02-23T18:30:47;99434.58;;;1.45;63.88
64460;BME280;50828;53.756;21.140;2023-02-23T18:35:55;99432.67;;;1.45;63.90
64460;BME280;50828;53.756;21.140;2023-02-23T18:41:03;99427.48;;;1.45;64.05
64460;BME280;50828;53.756;21.140;2023-02-23T18:46:12;99415.15;;;1.45;64.09
64460;BME280;50828;53.756;21.140;2023-02-23T18:51:22;99398.78;;;1.49;64.28
64460;BME280;50828;53.756;21.140;2023-02-23T18:56:31;99372.54;;;1.41;64.38
64460;BME280;50828;53.756;21.140;2023-02-23T19:01:39;99380.96;;;1.57;64.41
64460;BME280;50828;53.756;21.140;2023-02-23T19:06:51;99372.58;;;1.60;64.47
64460;BME280;50828;53.756;21.140;2023-02-23T19:11:59;99359.17;;;1.62;64.39
64460;BME280;50828;53.756;21.140;2023-02-23T19:17:08;99345.94;;;1.66;64.44
64460;BME280;50828;53.756;21.140;2023-02-23T19:22:16;99340.52;;;1.69;64.49
64460;BME280;50828;53.756;21.140;2023-02-23T19:27:25;99331.25;;;1.72;64.47
64460;BME280;50828;53.756;21.140;2023-02-23T19:32:33;99318.17;;;1.75;64.47
64460;BME280;50828;53.756;21.140;2023-02-23T19:37:45;99312.73;;;1.79;64.46
64460;BME280;50828;53.756;21.140;2023-02-23T19:42:54;99295.96;;;1.85;64.44
64460;BME280;50828;53.756;21.140;2023-02-23T19:48:03;99286.70;;;1.89;64.45
64460;BME280;50828;53.756;21.140;2023-02-23T19:53:11;99269.24;;;1.94;64.44
64460;BME280;50828;53.756;21.140;2023-02-23T19:58:19;99263.61;;;1.98;64.31
64460;BME280;50828;53.756;21.140;2023-02-23T20:03:33;99256.74;;;2.02;64.34
64460;BME280;50828;53.756;21.140;2023-02-23T20:08:46;99247.13;;;2.06;64.37
64460;BME280;50828;53.756;21.140;2023-02-23T20:13:56;99235.42;;;2.10;64.38
64460;BME280;50828;53.756;21.140;2023-02-23T20:19:06;99232.38;;;2.14;64.30
64460;BME280;50828;53.756;21.140;2023-02-23T20:24:17;99227.95;;;2.18;64.30
64460;BME280;50828;53.756;21.140;2023-02-23T20:29:26;99230.44;;;2.25;64.20
64460;BME280;50828;53.756;21.140;2023-02-23T20:34:35;99228.43;;;2.28;64.09
64460;BME280;50828;53.756;21.140;2023-02-23T20:39:45;99229.07;;;2.32;64.13
64460;BME280;50828;53.756;21.140;2023-02-23T20:44:53;99221.05;;;2.32;64.12
64460;BME280;50828;53.756;21.140;2023-02-23T20:50:04;99213.72;;;2.34;64.10
64460;BME280;50828;53.756;21.140;2023-02-23T20:55:15;99202.23;;;2.35;64.06
64460;BME280;50828;53.756;21.140;2023-02-23T21:00:26;99193.90;;;2.35;64.09
64460;BME280;50828;53.756;21.140;2023-02-23T21:05:38;99181.55;;;2.35;64.14
64460;BME280;50828;53.756;21.140;2023-02-23T21:10:47;99174.55;;;2.37;64.02
64460;BME280;50828;53.756;21.140;2023-02-23T21:15:57;99169.02;;;2.36;64.15
64460;BME280;50828;53.756;21.140;2023-02-23T21:21:07;99159.65;;;2.35;64.21
64460;BME280;50828;53.756;21.140;2023-02-23T21:26:16;99153.21;;;2.36;64.27
64460;BME280;50828;53.756;21.140;2023-02-23T21:31:27;99144.13;;;2.38;64.47
64460;BME280;50828;53.756;21.140;2023-02-23T21:36:36;99139.38;;;2.41;64.43
64460;BME280;50828;53.756;21.140;2023-02-23T21:41:44;99129.60;;;2.43;64.45
64460;BME280;50828;53.756;21.140;2023-02-23T21:46:52;99123.47;;;2.45;64.59
64460;BME280;50828;53.756;21.140;2023-02-23T21:52:00;99109.97;;;2.43;64.54
64460;BME280;50828;53.756;21.140;2023-02-23T21:57:09;99103.81;;;2.45;64.62
64460;BME280;50828;53.756;21.140;2023-02-23T22:02:17;99095.10;;;2.46;64.70
64460;BME280;50828;53.756;21.140;2023-02-23T22:07:24;99087.25;;;2.48;64.78
64460;BME280;50828;53.756;21.140;2023-02-23T22:12:34;99073.67;;;2.49;64.90
64460;BME280;50828;53.756;21.140;2023-02-23T22:17:41;99066.35;;;2.50;65.00
64460;BME280;50828;53.756;21.140;2023-02-23T22:22:49;99060.85;;;2.55;64.84
64460;BME280;50828;53.756;21.140;2023-02-23T22:27:58;99047.23;;;2.57;64.94
64460;BME280;50828;53.756;21.140;2023-02-23T22:33:06;99034.83;;;2.60;64.96
64460;BME280;50828;53.756;21.140;2023-02-23T22:38:14;99027.69;;;2.60;65.09
64460;BME280;50828;53.756;21.140;2023-02-23T22:43:25;99023.80;;;2.63;65.26
64460;BME280;50828;53.756;21.140;2023-02-23T22:48:34;99022.15;;;2.66;65.25
64460;BME280;50828;53.756;21.140;2023-02-23T22:53:43;99017.38;;;2.69;65.45
64460;BME280;50828;53.756;21.140;2023-02-23T22:58:53;99006.52;;;2.72;65.45
64460;BME280;50828;53.756;21.140;2023-02-23T23:04:01;99000.17;;;2.75;65.48
64460;BME280;50828;53.756;21.140;2023-02-23T23:09:16;98992.80;;;2.79;65.54
64460;BME280;50828;53.756;21.140;2023-02-23T23:14:27;98977.90;;;2.76;65.63
64460;BME280;50828;53.756;21.140;2023-02-23T23:19:38;98967.30;;;2.83;65.81
64460;BME280;50828;53.756;21.140;2023-02-23T23:24:47;98955.09;;;2.84;65.65
64460;BME280;50828;53.756;21.140;2023-02-23T23:29:56;98950.34;;;2.86;65.78
64460;BME280;50828;53.756;21.140;2023-02-23T23:35:06;98940.45;;;2.86;65.81
64460;BME280;50828;53.756;21.140;2023-02-23T23:40:17;98932.88;;;2.89;65.92
64460;BME280;50828;53.756;21.140;2023-02-23T23:45:31;98919.94;;;2.91;66.00
64460;BME280;50828;53.756;21.140;2023-02-23T23:50:43;98911.16;;;2.94;66.08
64460;BME280;50828;53.756;21.140;2023-02-23T23:55:53;98901.69;;;2.97;66.09
